Weather forecast for Kursk, towing flights (Курск)

Russia, 209 m
N51.642, E36.228


Sounding

Red line — air temperature ˚C.
Blue line — thermal bubble temperature ˚C.
Green line — dew point temperature ˚C.
Wind speed is in meters per second.

Table forecast

GFS 0.25˚ model

temp. wind gust humid. clouds prec. press. hpbl
Mon17 00:00 -10 105.0 ese 3 7 97 65 0.0 1037 245
03:00 -10 103.0 ese 3 6 97 68 0.0 1037 147
06:00 -10 100.0 e 3 7 97 100 0.0 1036 198
09:00 -11 104.0 ese 3 8 97 100 0.0 1036 259
12:00 -9 111.0 ese 4 7 95 100 0.0 1036 333
15:00 -9 100.0 e 4 6 94 100 0.1 1035 333
18:00 -11 99.0 e 4 7 96 100 0.0 1035 323
21:00 -13 101.0 e 3 8 97 100 0.1 1035 247
 
Tue18 00:00 -15 100.0 e 3 7 98 99 0.0 1035 179
03:00 -15 102.0 ese 3 7 98 100 0.0 1035 203
06:00 -14 102.0 ese 3 7 97 100 0.1 1035 235
09:00 -15 99.0 e 3 7 97 100 0.1 1035 183
12:00 -12 114.0 ese 4 7 94 98 0.0 1035 390
15:00 -11 111.0 ese 3 7 94 97 0.1 1035 466
18:00 -11 94.0 e 3 7 95 99 0.1 1035 288
21:00 -11 100.0 e 3 7 96 100 0.1 1035 250
 
Wed19 00:00 -11 96.0 e 2 6 96 99 0.0 1035 181
03:00 -12 91.0 e 3 4 97 98 0.1 1035 94
06:00 -11 90.0 e 3 6 97 97 0.1 1034 210
09:00 -11 99.0 e 3 7 96 98 0.1 1035 254
12:00 -9 103.0 ese 3 6 96 100 0.0 1035 289
15:00 -9 90.0 e 3 5 95 100 0.1 1034 300
18:00 -9 100.0 e 3 7 96 100 0.1 1035 303
21:00 -11 113.0 ese 3 7 96 100 0.1 1035 234
 
Thu20 00:00 -11 104.0 ese 2 3 97 100 0.0 1034 99
03:00 -11 92.0 e 2 3 97 100 0.0 1034 82
06:00 -12 91.0 e 2 3 97 96 0.0 1034 45
09:00 -12 76.0 ene 2 2 98 96 0.0 1036 53
12:00 -11 88.0 e 2 3 96 100 0.0 1036 237
15:00 -10 71.0 ene 1 2 96 100 0.1 1035 164
18:00 -12 63.0 ene 2 2 97 91 0.0 1036 25
21:00 -12 73.0 ene 1 2 97 91 0.0 1036 25
 
Fri21 00:00 -12 66.0 ene 1 1 97 97 0.0 1036 20
03:00 -11 49.0 ne 1 2 97 97 0.1 1035 33
06:00 -11 55.0 ne 2 2 96 99 0.0 1035 45
09:00 -11 80.0 e 2 3 96 98 0.1 1035 101
12:00 -9 100.0 e 2 3 96 99 0.0 1034 174
15:00 -9 99.0 e 2 3 97 98 0.1 1033 187
18:00 -9 102.0 ese 3 5 97 99 0.1 1032 176
21:00 -8 118.0 ese 3 7 97 100 0.1 1031 233
 

0.028 s